sensor_id;sensor_type;location;lat;lon;timestamp;pressure;altitude;pressure_sealevel;temperature;humidity
37200;BME280;23096;50.892;16.746;2023-03-14T00:01:12;97511.29;;;11.45;55.25
37200;BME280;23096;50.892;16.746;2023-03-14T00:03:38;97509.35;;;11.60;55.34
37200;BME280;23096;50.892;16.746;2023-03-14T00:06:04;97512.28;;;11.79;55.42
37200;BME280;23096;50.892;16.746;2023-03-14T00:08:30;97507.79;;;11.93;55.36
37200;BME280;23096;50.892;16.746;2023-03-14T00:10:55;97500.11;;;12.05;55.29
37200;BME280;23096;50.892;16.746;2023-03-14T00:13:22;97506.20;;;12.15;55.14
37200;BME280;23096;50.892;16.746;2023-03-14T00:15:48;97498.09;;;12.20;55.21
37200;BME280;23096;50.892;16.746;2023-03-14T00:18:13;97484.42;;;12.24;55.11
37200;BME280;23096;50.892;16.746;2023-03-14T00:20:38;97478.36;;;12.27;54.99
37200;BME280;23096;50.892;16.746;2023-03-14T00:23:04;97478.65;;;12.28;54.89
37200;BME280;23096;50.892;16.746;2023-03-14T00:25:29;97485.96;;;12.32;54.92
37200;BME280;23096;50.892;16.746;2023-03-14T00:27:54;97492.96;;;12.38;54.84
37200;BME280;23096;50.892;16.746;2023-03-14T00:30:20;97499.63;;;12.41;54.81
37200;BME280;23096;50.892;16.746;2023-03-14T00:32:46;97505.08;;;12.39;54.55
37200;BME280;23096;50.892;16.746;2023-03-14T00:35:11;97470.24;;;12.35;54.57
37200;BME280;23096;50.892;16.746;2023-03-14T00:37:36;97463.42;;;12.32;54.50
37200;BME280;23096;50.892;16.746;2023-03-14T00:40:02;97486.01;;;12.26;54.40
37200;BME280;23096;50.892;16.746;2023-03-14T00:42:30;97504.53;;;12.22;54.36
37200;BME280;23096;50.892;16.746;2023-03-14T00:44:57;97537.10;;;12.19;54.28
37200;BME280;23096;50.892;16.746;2023-03-14T00:47:22;97592.38;;;12.15;54.42
37200;BME280;23096;50.892;16.746;2023-03-14T00:49:48;97585.83;;;12.16;54.38
37200;BME280;23096;50.892;16.746;2023-03-14T00:52:13;97567.38;;;12.13;54.31
37200;BME280;23096;50.892;16.746;2023-03-14T00:54:39;97572.73;;;12.11;54.25
37200;BME280;23096;50.892;16.746;2023-03-14T00:57:04;97574.05;;;12.06;54.13
37200;BME280;23096;50.892;16.746;2023-03-14T00:59:30;97600.00;;;11.98;54.12
37200;BME280;23096;50.892;16.746;2023-03-14T01:01:55;97592.91;;;11.88;54.09
37200;BME280;23096;50.892;16.746;2023-03-14T01:04:21;97594.91;;;11.78;54.20
37200;BME280;23096;50.892;16.746;2023-03-14T01:06:47;97590.52;;;11.71;54.15
37200;BME280;23096;50.892;16.746;2023-03-14T01:09:12;97593.59;;;11.63;54.18
37200;BME280;23096;50.892;16.746;2023-03-14T01:11:38;97599.41;;;11.58;54.13
37200;BME280;23096;50.892;16.746;2023-03-14T01:14:03;97613.63;;;11.53;54.31
37200;BME280;23096;50.892;16.746;2023-03-14T01:16:30;97603.94;;;11.48;54.32
37200;BME280;23096;50.892;16.746;2023-03-14T01:18:59;97584.40;;;11.45;54.48
37200;BME280;23096;50.892;16.746;2023-03-14T01:21:26;97564.37;;;11.41;54.58
37200;BME280;23096;50.892;16.746;2023-03-14T01:23:52;97550.54;;;11.39;54.75
37200;BME280;23096;50.892;16.746;2023-03-14T01:26:19;97515.83;;;11.39;54.67
37200;BME280;23096;50.892;16.746;2023-03-14T01:28:45;97487.27;;;11.39;54.74
37200;BME280;23096;50.892;16.746;2023-03-14T01:31:11;97508.70;;;11.40;54.76
37200;BME280;23096;50.892;16.746;2023-03-14T01:33:37;97536.46;;;11.39;54.76
37200;BME280;23096;50.892;16.746;2023-03-14T01:36:03;97537.04;;;11.35;54.92
37200;BME280;23096;50.892;16.746;2023-03-14T01:38:29;97537.27;;;11.34;54.98
37200;BME280;23096;50.892;16.746;2023-03-14T01:40:55;97528.01;;;11.34;54.98
37200;BME280;23096;50.892;16.746;2023-03-14T01:43:21;97521.54;;;11.33;55.03
37200;BME280;23096;50.892;16.746;2023-03-14T01:51:27;97482.25;;;11.31;55.34
37200;BME280;23096;50.892;16.746;2023-03-14T01:53:55;97466.48;;;11.42;55.59
37200;BME280;23096;50.892;16.746;2023-03-14T01:56:24;97454.33;;;11.52;55.61
37200;BME280;23096;50.892;16.746;2023-03-14T01:58:51;97442.82;;;11.59;55.68
37200;BME280;23096;50.892;16.746;2023-03-14T02:01:18;97430.98;;;11.65;55.58
37200;BME280;23096;50.892;16.746;2023-03-14T02:03:47;97430.64;;;11.67;55.63
37200;BME280;23096;50.892;16.746;2023-03-14T02:06:15;97427.52;;;11.70;55.47
37200;BME280;23096;50.892;16.746;2023-03-14T02:08:43;97426.16;;;11.73;55.48
37200;BME280;23096;50.892;16.746;2023-03-14T02:11:16;97430.06;;;11.74;55.49
37200;BME280;23096;50.892;16.746;2023-03-14T02:13:48;97429.84;;;11.74;55.35
37200;BME280;23096;50.892;16.746;2023-03-14T02:16:32;97420.30;;;11.75;55.36
37200;BME280;23096;50.892;16.746;2023-03-14T02:22:38;97377.52;;;11.74;55.22
37200;BME280;23096;50.892;16.746;2023-03-14T02:25:09;97360.98;;;11.73;55.19
37200;BME280;23096;50.892;16.746;2023-03-14T02:27:36;97355.17;;;11.69;55.13
37200;BME280;23096;50.892;16.746;2023-03-14T02:32:32;97327.52;;;11.66;55.23
37200;BME280;23096;50.892;16.746;2023-03-14T02:35:00;97323.77;;;11.63;55.20
37200;BME280;23096;50.892;16.746;2023-03-14T02:37:30;97324.78;;;11.58;55.19
37200;BME280;23096;50.892;16.746;2023-03-14T02:39:58;97344.54;;;11.50;55.25
37200;BME280;23096;50.892;16.746;2023-03-14T02:42:24;97355.19;;;11.43;55.14
37200;BME280;23096;50.892;16.746;2023-03-14T02:44:54;97352.41;;;11.35;55.21
37200;BME280;23096;50.892;16.746;2023-03-14T02:47:22;97336.02;;;11.30;55.42
37200;BME280;23096;50.892;16.746;2023-03-14T02:49:51;97326.39;;;11.31;55.39
37200;BME280;23096;50.892;16.746;2023-03-14T02:52:18;97321.33;;;11.29;55.57
37200;BME280;23096;50.892;16.746;2023-03-14T02:54:44;97314.81;;;11.32;55.49
37200;BME280;23096;50.892;16.746;2023-03-14T02:57:09;97305.08;;;11.34;55.56
37200;BME280;23096;50.892;16.746;2023-03-14T02:59:35;97278.82;;;11.33;55.54
37200;BME280;23096;50.892;16.746;2023-03-14T03:02:07;97273.95;;;11.31;55.51
37200;BME280;23096;50.892;16.746;2023-03-14T03:04:33;97257.61;;;11.29;55.62
37200;BME280;23096;50.892;16.746;2023-03-14T03:06:58;97241.36;;;11.25;55.61
37200;BME280;23096;50.892;16.746;2023-03-14T03:09:23;97228.16;;;11.19;55.60
37200;BME280;23096;50.892;16.746;2023-03-14T03:11:50;97239.52;;;11.14;55.60
37200;BME280;23096;50.892;16.746;2023-03-14T03:14:18;97255.09;;;11.09;55.72
37200;BME280;23096;50.892;16.746;2023-03-14T03:16:44;97272.40;;;11.05;55.77
37200;BME280;23096;50.892;16.746;2023-03-14T03:19:09;97280.27;;;11.00;55.71
37200;BME280;23096;50.892;16.746;2023-03-14T03:21:35;97257.71;;;10.95;55.81
37200;BME280;23096;50.892;16.746;2023-03-14T03:24:00;97253.44;;;10.92;55.88
37200;BME280;23096;50.892;16.746;2023-03-14T03:26:26;97254.63;;;10.90;55.93
37200;BME280;23096;50.892;16.746;2023-03-14T03:28:51;97246.94;;;10.87;56.04
37200;BME280;23096;50.892;16.746;2023-03-14T03:31:17;97240.17;;;10.85;56.12
37200;BME280;23096;50.892;16.746;2023-03-14T03:33:42;97249.39;;;10.83;56.18
37200;BME280;23096;50.892;16.746;2023-03-14T03:36:08;97250.48;;;10.82;56.25
37200;BME280;23096;50.892;16.746;2023-03-14T03:38:35;97239.88;;;10.82;56.27
37200;BME280;23096;50.892;16.746;2023-03-14T03:41:03;97238.27;;;10.83;56.34
37200;BME280;23096;50.892;16.746;2023-03-14T03:43:29;97239.08;;;10.81;56.24
37200;BME280;23096;50.892;16.746;2023-03-14T03:45:55;97247.60;;;10.79;56.27
37200;BME280;23096;50.892;16.746;2023-03-14T03:48:22;97251.02;;;10.80;56.38
37200;BME280;23096;50.892;16.746;2023-03-14T03:50:47;97239.48;;;10.80;56.49
37200;BME280;23096;50.892;16.746;2023-03-14T03:53:15;97231.39;;;10.80;56.61
37200;BME280;23096;50.892;16.746;2023-03-14T03:55:41;97217.20;;;10.79;56.60
37200;BME280;23096;50.892;16.746;2023-03-14T03:58:08;97208.74;;;10.80;56.55
37200;BME280;23096;50.892;16.746;2023-03-14T04:00:33;97213.75;;;10.82;56.72
37200;BME280;23096;50.892;16.746;2023-03-14T04:02:59;97229.27;;;10.84;56.74
37200;BME280;23096;50.892;16.746;2023-03-14T04:05:25;97218.27;;;10.84;56.79
37200;BME280;23096;50.892;16.746;2023-03-14T04:07:59;97205.66;;;10.85;56.74
37200;BME280;23096;50.892;16.746;2023-03-14T04:10:26;97201.96;;;10.86;56.81
37200;BME280;23096;50.892;16.746;2023-03-14T04:13:08;97196.95;;;10.90;56.82
37200;BME280;23096;50.892;16.746;2023-03-14T04:15:34;97186.91;;;10.93;56.91
37200;BME280;23096;50.892;16.746;2023-03-14T04:18:05;97168.98;;;10.97;56.90
37200;BME280;23096;50.892;16.746;2023-03-14T04:20:33;97159.52;;;11.00;56.91
37200;BME280;23096;50.892;16.746;2023-03-14T04:22:59;97150.11;;;11.02;56.85
37200;BME280;23096;50.892;16.746;2023-03-14T04:25:25;97138.70;;;11.05;56.91
37200;BME280;23096;50.892;16.746;2023-03-14T04:27:54;97121.73;;;11.10;56.93
37200;BME280;23096;50.892;16.746;2023-03-14T04:30:25;97110.90;;;11.12;56.86
37200;BME280;23096;50.892;16.746;2023-03-14T04:32:59;97100.46;;;11.15;56.75
37200;BME280;23096;50.892;16.746;2023-03-14T04:35:26;97089.48;;;11.17;56.83
37200;BME280;23096;50.892;16.746;2023-03-14T04:37:59;97072.27;;;11.25;56.83
37200;BME280;23096;50.892;16.746;2023-03-14T04:40:24;97064.35;;;11.35;56.83
37200;BME280;23096;50.892;16.746;2023-03-14T04:42:52;97104.54;;;11.40;56.84
37200;BME280;23096;50.892;16.746;2023-03-14T04:45:19;97159.28;;;11.44;56.75
37200;BME280;23096;50.892;16.746;2023-03-14T04:47:45;97157.04;;;11.52;56.69
37200;BME280;23096;50.892;16.746;2023-03-14T04:50:13;97148.83;;;11.59;56.63
37200;BME280;23096;50.892;16.746;2023-03-14T04:52:40;97161.97;;;11.60;56.51
37200;BME280;23096;50.892;16.746;2023-03-14T04:55:05;97162.70;;;11.58;56.49
37200;BME280;23096;50.892;16.746;2023-03-14T04:57:31;97150.61;;;11.60;56.48
37200;BME280;23096;50.892;16.746;2023-03-14T04:59:56;97161.42;;;11.58;56.42
37200;BME280;23096;50.892;16.746;2023-03-14T05:02:40;97180.49;;;11.51;56.37
37200;BME280;23096;50.892;16.746;2023-03-14T05:05:15;97180.90;;;11.42;56.27
37200;BME280;23096;50.892;16.746;2023-03-14T05:08:03;97158.20;;;11.32;56.23
37200;BME280;23096;50.892;16.746;2023-03-14T05:10:42;97142.04;;;11.25;56.27
37200;BME280;23096;50.892;16.746;2023-03-14T05:13:26;97155.79;;;11.20;56.37
37200;BME280;23096;50.892;16.746;2023-03-14T05:16:16;97157.52;;;11.20;56.61
37200;BME280;23096;50.892;16.746;2023-03-14T05:19:04;97160.03;;;11.23;56.52
37200;BME280;23096;50.892;16.746;2023-03-14T05:21:33;97173.65;;;11.22;56.42
37200;BME280;23096;50.892;16.746;2023-03-14T05:24:04;97171.38;;;11.20;56.48
37200;BME280;23096;50.892;16.746;2023-03-14T05:27:02;97173.27;;;11.15;56.45
37200;BME280;23096;50.892;16.746;2023-03-14T05:29:28;97173.15;;;11.14;56.47
37200;BME280;23096;50.892;16.746;2023-03-14T05:32:19;97172.64;;;11.09;56.42
37200;BME280;23096;50.892;16.746;2023-03-14T05:35:11;97184.17;;;11.03;56.47
37200;BME280;23096;50.892;16.746;2023-03-14T05:37:49;97194.77;;;10.97;56.43
37200;BME280;23096;50.892;16.746;2023-03-14T05:40:26;97209.37;;;10.91;56.62
37200;BME280;23096;50.892;16.746;2023-03-14T05:43:21;97206.52;;;10.90;56.71
37200;BME280;23096;50.892;16.746;2023-03-14T05:45:52;97192.15;;;10.87;56.74
37200;BME280;23096;50.892;16.746;2023-03-14T05:48:36;97197.58;;;10.85;56.83
37200;BME280;23096;50.892;16.746;2023-03-14T05:51:27;97212.34;;;10.90;56.85
37200;BME280;23096;50.892;16.746;2023-03-14T05:53:53;97224.30;;;10.91;56.95
37200;BME280;23096;50.892;16.746;2023-03-14T05:56:36;97231.77;;;10.93;56.89
37200;BME280;23096;50.892;16.746;2023-03-14T05:59:20;97229.16;;;10.93;56.89
37200;BME280;23096;50.892;16.746;2023-03-14T06:02:15;97211.72;;;10.92;56.98
37200;BME280;23096;50.892;16.746;2023-03-14T06:04:46;97199.00;;;10.90;56.98
37200;BME280;23096;50.892;16.746;2023-03-14T06:07:11;97196.73;;;10.90;57.14
37200;BME280;23096;50.892;16.746;2023-03-14T06:09:37;97200.73;;;10.89;57.02
37200;BME280;23096;50.892;16.746;2023-03-14T06:12:05;97210.34;;;10.89;57.09
37200;BME280;23096;50.892;16.746;2023-03-14T06:14:34;97227.79;;;10.91;57.13
37200;BME280;23096;50.892;16.746;2023-03-14T06:17:00;97229.05;;;10.90;57.13
37200;BME280;23096;50.892;16.746;2023-03-14T06:19:26;97231.70;;;10.88;57.15
37200;BME280;23096;50.892;16.746;2023-03-14T06:21:52;97231.43;;;10.85;57.10
37200;BME280;23096;50.892;16.746;2023-03-14T06:24:17;97239.05;;;10.81;57.16
37200;BME280;23096;50.892;16.746;2023-03-14T06:26:45;97240.20;;;10.74;57.03
37200;BME280;23096;50.892;16.746;2023-03-14T06:29:10;97244.70;;;10.68;57.07
37200;BME280;23096;50.892;16.746;2023-03-14T06:31:36;97254.55;;;10.64;57.09
37200;BME280;23096;50.892;16.746;2023-03-14T06:34:03;97263.48;;;10.59;57.11
37200;BME280;23096;50.892;16.746;2023-03-14T06:36:30;97261.39;;;10.57;57.20
37200;BME280;23096;50.892;16.746;2023-03-14T06:38:55;97254.70;;;10.57;57.25
37200;BME280;23096;50.892;16.746;2023-03-14T06:41:22;97254.83;;;10.57;57.35
37200;BME280;23096;50.892;16.746;2023-03-14T06:43:49;97252.92;;;10.60;57.29
37200;BME280;23096;50.892;16.746;2023-03-14T06:46:15;97257.47;;;10.62;57.39
37200;BME280;23096;50.892;16.746;2023-03-14T06:48:41;97253.73;;;10.64;57.35
37200;BME280;23096;50.892;16.746;2023-03-14T06:51:07;97256.20;;;10.65;57.41
37200;BME280;23096;50.892;16.746;2023-03-14T06:53:32;97256.81;;;10.67;57.53
37200;BME280;23096;50.892;16.746;2023-03-14T06:55:58;97255.76;;;10.67;57.50
37200;BME280;23096;50.892;16.746;2023-03-14T06:58:24;97254.26;;;10.66;57.41
37200;BME280;23096;50.892;16.746;2023-03-14T07:00:50;97260.27;;;10.66;57.48
37200;BME280;23096;50.892;16.746;2023-03-14T07:03:20;97273.20;;;10.65;57.53
37200;BME280;23096;50.892;16.746;2023-03-14T07:05:47;97286.55;;;10.66;57.60
37200;BME280;23096;50.892;16.746;2023-03-14T07:08:13;97291.11;;;10.68;57.64
37200;BME280;23096;50.892;16.746;2023-03-14T07:10:38;97290.64;;;10.70;57.66
37200;BME280;23096;50.892;16.746;2023-03-14T07:13:05;97288.09;;;10.72;57.70
37200;BME280;23096;50.892;16.746;2023-03-14T07:15:32;97286.48;;;10.76;57.64
37200;BME280;23096;50.892;16.746;2023-03-14T07:18:02;97279.80;;;10.78;57.59
37200;BME280;23096;50.892;16.746;2023-03-14T07:20:27;97261.31;;;10.77;57.68
37200;BME280;23096;50.892;16.746;2023-03-14T07:22:54;97253.03;;;10.78;57.63
37200;BME280;23096;50.892;16.746;2023-03-14T07:25:28;97260.79;;;10.80;57.69
37200;BME280;23096;50.892;16.746;2023-03-14T07:27:54;97267.58;;;10.81;57.60
37200;BME280;23096;50.892;16.746;2023-03-14T07:30:20;97256.16;;;10.79;57.72
37200;BME280;23096;50.892;16.746;2023-03-14T07:32:46;97263.92;;;10.76;57.52
37200;BME280;23096;50.892;16.746;2023-03-14T07:35:12;97265.65;;;10.66;57.55
37200;BME280;23096;50.892;16.746;2023-03-14T07:37:38;97270.17;;;10.56;57.67
37200;BME280;23096;50.892;16.746;2023-03-14T07:40:04;97265.38;;;10.48;57.62
37200;BME280;23096;50.892;16.746;2023-03-14T07:42:32;97267.90;;;10.38;57.65
37200;BME280;23096;50.892;16.746;2023-03-14T07:45:17;97278.08;;;10.28;57.67
37200;BME280;23096;50.892;16.746;2023-03-14T07:47:43;97275.45;;;10.20;57.83
37200;BME280;23096;50.892;16.746;2023-03-14T07:50:09;97272.20;;;10.14;57.87
37200;BME280;23096;50.892;16.746;2023-03-14T07:52:34;97277.70;;;10.11;58.02
37200;BME280;23096;50.892;16.746;2023-03-14T07:54:59;97276.59;;;10.10;58.10
37200;BME280;23096;50.892;16.746;2023-03-14T07:57:25;97269.31;;;10.11;58.20
37200;BME280;23096;50.892;16.746;2023-03-14T07:59:50;97265.25;;;10.13;58.31
37200;BME280;23096;50.892;16.746;2023-03-14T08:02:16;97249.34;;;10.21;58.51
37200;BME280;23096;50.892;16.746;2023-03-14T08:04:43;97230.91;;;10.31;58.60
37200;BME280;23096;50.892;16.746;2023-03-14T08:07:08;97236.04;;;10.42;58.71
37200;BME280;23096;50.892;16.746;2023-03-14T08:09:33;97241.83;;;10.54;58.78
37200;BME280;23096;50.892;16.746;2023-03-14T08:11:59;97242.73;;;10.64;58.90
37200;BME280;23096;50.892;16.746;2023-03-14T08:14:24;97242.39;;;10.72;59.00
37200;BME280;23096;50.892;16.746;2023-03-14T08:16:50;97234.63;;;10.80;59.03
37200;BME280;23096;50.892;16.746;2023-03-14T08:19:15;97226.59;;;10.88;59.07
37200;BME280;23096;50.892;16.746;2023-03-14T08:21:40;97224.17;;;10.93;59.09
37200;BME280;23096;50.892;16.746;2023-03-14T08:24:06;97217.35;;;10.99;59.17
37200;BME280;23096;50.892;16.746;2023-03-14T08:26:31;97225.14;;;11.02;59.09
37200;BME280;23096;50.892;16.746;2023-03-14T08:28:57;97217.26;;;11.05;59.13
37200;BME280;23096;50.892;16.746;2023-03-14T08:31:22;97212.52;;;11.06;59.13
37200;BME280;23096;50.892;16.746;2023-03-14T08:33:47;97225.27;;;11.08;59.12
37200;BME280;23096;50.892;16.746;2023-03-14T08:36:13;97248.72;;;11.10;59.13
37200;BME280;23096;50.892;16.746;2023-03-14T08:38:39;97263.84;;;11.12;59.28
37200;BME280;23096;50.892;16.746;2023-03-14T08:41:07;97275.32;;;11.15;59.29
37200;BME280;23096;50.892;16.746;2023-03-14T08:43:33;97274.96;;;11.18;59.31
37200;BME280;23096;50.892;16.746;2023-03-14T08:45:59;97279.21;;;11.22;59.37
37200;BME280;23096;50.892;16.746;2023-03-14T08:48:25;97280.58;;;11.24;59.40
37200;BME280;23096;50.892;16.746;2023-03-14T08:50:51;97289.91;;;11.26;59.27
37200;BME280;23096;50.892;16.746;2023-03-14T08:53:16;97297.61;;;11.26;59.41
37200;BME280;23096;50.892;16.746;2023-03-14T08:55:42;97297.17;;;11.28;59.34
37200;BME280;23096;50.892;16.746;2023-03-14T08:58:07;97294.58;;;11.28;59.29
37200;BME280;23096;50.892;16.746;2023-03-14T09:00:32;97290.15;;;11.30;59.55
37200;BME280;23096;50.892;16.746;2023-03-14T09:02:58;97277.20;;;11.31;59.50
37200;BME280;23096;50.892;16.746;2023-03-14T09:05:23;97278.17;;;11.32;59.47
37200;BME280;23096;50.892;16.746;2023-03-14T09:07:49;97285.19;;;11.33;59.40
37200;BME280;23096;50.892;16.746;2023-03-14T09:10:14;97282.67;;;11.35;59.52
37200;BME280;23096;50.892;16.746;2023-03-14T09:12:39;97277.38;;;11.37;59.54
37200;BME280;23096;50.892;16.746;2023-03-14T09:15:05;97271.52;;;11.40;59.64
37200;BME280;23096;50.892;16.746;2023-03-14T09:17:30;97268.60;;;11.42;59.67
37200;BME280;23096;50.892;16.746;2023-03-14T09:19:56;97287.83;;;11.45;59.63
37200;BME280;23096;50.892;16.746;2023-03-14T09:22:21;97297.63;;;11.47;59.74
37200;BME280;23096;50.892;16.746;2023-03-14T09:24:47;97307.45;;;11.50;59.67
37200;BME280;23096;50.892;16.746;2023-03-14T09:27:12;97315.39;;;11.52;59.66
37200;BME280;23096;50.892;16.746;2023-03-14T09:29:38;97323.92;;;11.53;59.79
37200;BME280;23096;50.892;16.746;2023-03-14T09:32:03;97329.71;;;11.54;59.79
37200;BME280;23096;50.892;16.746;2023-03-14T09:34:29;97326.83;;;11.53;59.80
37200;BME280;23096;50.892;16.746;2023-03-14T09:36:54;97320.55;;;11.52;59.85
37200;BME280;23096;50.892;16.746;2023-03-14T09:39:19;97322.96;;;11.52;59.81
37200;BME280;23096;50.892;16.746;2023-03-14T09:41:48;97329.87;;;11.51;59.73
37200;BME280;23096;50.892;16.746;2023-03-14T09:44:22;97331.81;;;11.50;59.99
37200;BME280;23096;50.892;16.746;2023-03-14T09:46:50;97331.65;;;11.50;59.84
37200;BME280;23096;50.892;16.746;2023-03-14T09:49:21;97339.70;;;11.51;59.87
37200;BME280;23096;50.892;16.746;2023-03-14T09:51:49;97339.27;;;11.52;59.85
37200;BME280;23096;50.892;16.746;2023-03-14T09:54:19;97332.86;;;11.53;59.92
37200;BME280;23096;50.892;16.746;2023-03-14T09:56:49;97328.52;;;11.54;59.95
37200;BME280;23096;50.892;16.746;2023-03-14T09:59:14;97333.66;;;11.54;60.00
37200;BME280;23096;50.892;16.746;2023-03-14T10:01:40;97335.62;;;11.56;60.03
37200;BME280;23096;50.892;16.746;2023-03-14T10:04:15;97335.70;;;11.57;60.03
37200;BME280;23096;50.892;16.746;2023-03-14T10:06:44;97337.80;;;11.56;60.09
37200;BME280;23096;50.892;16.746;2023-03-14T10:09:23;97339.93;;;11.55;59.88
37200;BME280;23096;50.892;16.746;2023-03-14T10:12:00;97340.14;;;11.55;60.03
37200;BME280;23096;50.892;16.746;2023-03-14T10:17:37;97344.02;;;11.53;60.06
37200;BME280;23096;50.892;16.746;2023-03-14T10:20:03;97350.84;;;11.54;60.12
37200;BME280;23096;50.892;16.746;2023-03-14T10:22:29;97353.86;;;11.55;60.16
37200;BME280;23096;50.892;16.746;2023-03-14T10:24:56;97349.61;;;11.57;60.08
37200;BME280;23096;50.892;16.746;2023-03-14T10:27:28;97349.73;;;11.58;60.13
37200;BME280;23096;50.892;16.746;2023-03-14T10:29:56;97345.57;;;11.59;60.16
37200;BME280;23096;50.892;16.746;2023-03-14T10:32:23;97348.54;;;11.60;60.17
37200;BME280;23096;50.892;16.746;2023-03-14T10:35:18;97348.58;;;11.62;60.20
37200;BME280;23096;50.892;16.746;2023-03-14T10:37:50;97341.17;;;11.65;60.34
37200;BME280;23096;50.892;16.746;2023-03-14T10:40:16;97331.15;;;11.66;60.42
37200;BME280;23096;50.892;16.746;2023-03-14T10:42:43;97329.85;;;11.64;60.28
37200;BME280;23096;50.892;16.746;2023-03-14T10:47:58;97327.13;;;11.62;60.41
37200;BME280;23096;50.892;16.746;2023-03-14T10:50:27;97322.36;;;11.61;60.37
37200;BME280;23096;50.892;16.746;2023-03-14T10:52:54;97329.39;;;11.61;60.34
37200;BME280;23096;50.892;16.746;2023-03-14T10:55:20;97325.86;;;11.62;60.41
37200;BME280;23096;50.892;16.746;2023-03-14T10:57:46;97326.42;;;11.64;60.44
37200;BME280;23096;50.892;16.746;2023-03-14T11:00:15;97324.08;;;11.66;60.42
37200;BME280;23096;50.892;16.746;2023-03-14T11:07:40;97311.42;;;11.75;60.65
37200;BME280;23096;50.892;16.746;2023-03-14T11:15:10;97299.55;;;11.85;60.57
37200;BME280;23096;50.892;16.746;2023-03-14T11:17:50;97297.84;;;11.88;60.49
37200;BME280;23096;50.892;16.746;2023-03-14T11:20:32;97282.85;;;11.88;60.47
37200;BME280;23096;50.892;16.746;2023-03-14T11:23:16;97287.02;;;11.87;60.40
37200;BME280;23096;50.892;16.746;2023-03-14T11:28:37;97279.23;;;11.88;60.52
37200;BME280;23096;50.892;16.746;2023-03-14T11:31:15;97287.58;;;11.90;60.58
37200;BME280;23096;50.892;16.746;2023-03-14T11:36:51;97287.09;;;11.92;60.35
37200;BME280;23096;50.892;16.746;2023-03-14T11:39:12;97299.70;;;11.94;60.62
37200;BME280;23096;50.892;16.746;2023-03-14T11:41:52;97304.10;;;11.95;60.50
37200;BME280;23096;50.892;16.746;2023-03-14T11:44:35;97307.88;;;11.98;60.47
37200;BME280;23096;50.892;16.746;2023-03-14T11:55:44;97276.36;;;12.06;60.56
37200;BME280;23096;50.892;16.746;2023-03-14T11:58:14;97277.11;;;12.07;60.53
37200;BME280;23096;50.892;16.746;2023-03-14T12:00:42;97277.67;;;12.09;60.48
37200;BME280;23096;50.892;16.746;2023-03-14T12:13:37;97269.36;;;12.30;60.37
37200;BME280;23096;50.892;16.746;2023-03-14T12:16:04;97267.73;;;12.31;60.48
37200;BME280;23096;50.892;16.746;2023-03-14T12:18:34;97270.00;;;12.33;60.47
37200;BME280;23096;50.892;16.746;2023-03-14T12:21:04;97268.34;;;12.35;60.41
37200;BME280;23096;50.892;16.746;2023-03-14T12:23:39;97271.44;;;12.37;60.36
37200;BME280;23096;50.892;16.746;2023-03-14T12:28:37;97272.94;;;12.45;60.29
37200;BME280;23096;50.892;16.746;2023-03-14T12:33:47;97261.75;;;12.52;60.33
37200;BME280;23096;50.892;16.746;2023-03-14T12:36:18;97260.73;;;12.55;60.26
37200;BME280;23096;50.892;16.746;2023-03-14T12:41:35;97263.37;;;12.58;60.28
37200;BME280;23096;50.892;16.746;2023-03-14T12:46:46;97252.95;;;12.62;60.21
37200;BME280;23096;50.892;16.746;2023-03-14T12:49:12;97245.73;;;12.62;59.96
37200;BME280;23096;50.892;16.746;2023-03-14T12:51:37;97245.92;;;12.61;59.83
37200;BME280;23096;50.892;16.746;2023-03-14T12:54:10;97245.04;;;12.60;60.00
37200;BME280;23096;50.892;16.746;2023-03-14T12:56:40;97245.84;;;12.58;59.92
37200;BME280;23096;50.892;16.746;2023-03-14T12:59:18;97247.73;;;12.56;59.80
37200;BME280;23096;50.892;16.746;2023-03-14T13:01:56;97250.64;;;12.51;59.80
37200;BME280;23096;50.892;16.746;2023-03-14T13:04:37;97254.67;;;12.48;59.98
37200;BME280;23096;50.892;16.746;2023-03-14T13:07:12;97253.88;;;12.47;59.79
37200;BME280;23096;50.892;16.746;2023-03-14T13:12:23;97249.17;;;12.45;59.91
37200;BME280;23096;50.892;16.746;2023-03-14T13:14:52;97251.80;;;12.44;59.82
37200;BME280;23096;50.892;16.746;2023-03-14T13:17:22;97252.89;;;12.43;59.87
37200;BME280;23096;50.892;16.746;2023-03-14T13:19:50;97249.78;;;12.41;59.74
37200;BME280;23096;50.892;16.746;2023-03-14T13:22:22;97244.64;;;12.41;59.65
37200;BME280;23096;50.892;16.746;2023-03-14T13:24:56;97237.45;;;12.40;59.72
37200;BME280;23096;50.892;16.746;2023-03-14T13:27:22;97228.02;;;12.40;59.90
37200;BME280;23096;50.892;16.746;2023-03-14T13:29:49;97226.21;;;12.41;59.92
37200;BME280;23096;50.892;16.746;2023-03-14T13:32:22;97235.49;;;12.44;59.72
37200;BME280;23096;50.892;16.746;2023-03-14T13:34:51;97235.84;;;12.46;59.82
37200;BME280;23096;50.892;16.746;2023-03-14T13:37:21;97236.34;;;12.49;59.72
37200;BME280;23096;50.892;16.746;2023-03-14T13:39:50;97240.31;;;12.49;59.78
37200;BME280;23096;50.892;16.746;2023-03-14T13:42:16;97239.70;;;12.50;59.69
37200;BME280;23096;50.892;16.746;2023-03-14T13:44:41;97245.52;;;12.50;59.69
37200;BME280;23096;50.892;16.746;2023-03-14T13:47:12;97243.61;;;12.51;59.70
37200;BME280;23096;50.892;16.746;2023-03-14T13:49:39;97243.59;;;12.51;59.71
37200;BME280;23096;50.892;16.746;2023-03-14T13:52:20;97238.98;;;12.53;59.67
37200;BME280;23096;50.892;16.746;2023-03-14T13:54:46;97233.81;;;12.55;59.54
37200;BME280;23096;50.892;16.746;2023-03-14T13:57:11;97233.54;;;12.57;59.55
37200;BME280;23096;50.892;16.746;2023-03-14T13:59:37;97232.56;;;12.58;59.66
37200;BME280;23096;50.892;16.746;2023-03-14T14:02:15;97234.95;;;12.61;59.69
37200;BME280;23096;50.892;16.746;2023-03-14T14:04:40;97234.00;;;12.64;59.59